Terminal Aerodrome Forecast
Issued by NWS Duluth, MN

Home | Current Version | Previous Version | Text Only | Print | Product List | Glossary On
Versions: 1 2 3 4 5 6 7 8 9 10 11 12 13 14 15 16 17 18 19 20 21
771
FTUS43 KDLH 231013 AAA
TAFINL
TAF AMD
KINL 231013Z 2310/2406 32006KT P6SM OVC025
     FM231400 33006G18KT P6SM SCT025
     FM240200 36006KT P6SM SCT150=

USA.gov is the U.S. government's official web portal to all federal, state and local government web resources and services.